createdAt,value
2019-02-28T00:01:00.201Z,11.23
2019-02-28T00:04:05.314Z,7.47
2019-02-28T00:07:10.601Z,13.10
2019-02-28T00:10:15.704Z,13.50
2019-02-28T00:13:22.422Z,10.63
2019-02-28T00:16:27.528Z,13.10
2019-02-28T00:19:32.718Z,8.83
2019-02-28T00:22:37.818Z,11.30
2019-02-28T00:25:42.926Z,9.20
2019-02-28T00:28:48.182Z,11.23
2019-02-28T00:31:53.418Z,9.47
2019-02-28T00:34:58.546Z,9.40
2019-02-28T00:38:03.673Z,9.50
2019-02-28T00:41:10.023Z,8.47
2019-02-28T00:44:15.373Z,10.90
2019-02-28T00:47:20.513Z,15.33
2019-02-28T00:50:27.612Z,10.50
2019-02-28T00:53:32.715Z,9.53
2019-02-28T00:56:37.833Z,11.93
2019-02-28T00:59:43.031Z,13.73
2019-02-28T01:02:52.149Z,9.30
2019-02-28T01:05:55.198Z,11.40
2019-02-28T01:09:00.374Z,14.53
2019-02-28T01:12:07.054Z,14.40
2019-02-28T01:15:13.382Z,16.87
2019-02-28T01:18:18.515Z,11.23
2019-02-28T01:21:24.512Z,12.00
2019-02-28T01:24:34.457Z,17.87
2019-02-28T01:27:37.774Z,14.60
2019-02-28T01:30:42.967Z,14.97
2019-02-28T01:33:48.126Z,11.67
2019-02-28T01:36:53.328Z,11.63
2019-02-28T01:40:01.149Z,13.73
2019-02-28T01:43:05.422Z,11.20
2019-02-28T01:46:10.606Z,13.23
2019-02-28T01:49:15.763Z,11.10
2019-02-28T01:52:21.051Z,14.80
2019-02-28T01:55:26.164Z,15.30
2019-02-28T01:58:31.291Z,12.30
2019-02-28T02:01:36.448Z,10.10
2019-02-28T02:04:43.252Z,9.50
2019-02-28T02:07:48.411Z,8.93
2019-02-28T02:10:55.974Z,10.73
2019-02-28T02:14:00.391Z,11.70
2019-02-28T02:17:05.523Z,9.90
2019-02-28T02:20:10.856Z,9.27
2019-02-28T02:23:18.188Z,11.00
2019-02-28T02:26:22.803Z,10.17
2019-02-28T02:29:27.882Z,10.63
2019-02-28T02:32:37.058Z,10.37
2019-02-28T02:35:42.631Z,14.80
2019-02-28T02:38:47.727Z,8.53
2019-02-28T02:41:52.916Z,9.73
2019-02-28T02:44:58.053Z,10.27
2019-02-28T02:48:05.258Z,11.53
2019-02-28T02:51:11.109Z,9.33
2019-02-28T02:54:19.665Z,11.27
2019-02-28T02:57:23.884Z,12.40
2019-02-28T03:00:29.071Z,10.60
2019-02-28T03:03:34.324Z,8.10
2019-02-28T03:06:39.450Z,12.07
2019-02-28T03:09:44.824Z,10.47
2019-02-28T03:12:50.158Z,9.67
2019-02-28T03:15:59.358Z,8.53
2019-02-28T03:19:02.148Z,11.83
2019-02-28T03:22:07.287Z,9.97
2019-02-28T03:25:13.998Z,8.77
2019-02-28T03:28:19.089Z,9.87
2019-02-28T03:31:24.219Z,7.60
2019-02-28T03:34:29.429Z,9.53
2019-02-28T03:37:34.760Z,9.93
2019-02-28T03:40:41.256Z,11.13
2019-02-28T03:43:46.443Z,8.50
2019-02-28T03:46:51.675Z,9.47
2019-02-28T03:49:56.784Z,9.30
2019-02-28T03:53:01.943Z,14.43
2019-02-28T03:56:07.073Z,12.00
2019-02-28T03:59:18.227Z,8.73
2019-02-28T04:02:22.124Z,10.67
2019-02-28T04:05:28.111Z,10.10
2019-02-28T04:08:32.822Z,9.43
2019-02-28T04:11:38.048Z,11.20
2019-02-28T04:14:43.265Z,12.27
2019-02-28T04:17:48.421Z,8.77
2019-02-28T04:20:53.568Z,9.60
2019-02-28T04:23:58.696Z,9.13
2019-02-28T04:27:07.056Z,9.17
2019-02-28T04:30:12.154Z,10.47
2019-02-28T04:33:17.274Z,12.20
2019-02-28T04:36:22.463Z,10.80
2019-02-28T04:39:27.624Z,10.50
2019-02-28T04:42:32.810Z,9.17
2019-02-28T04:45:37.959Z,11.73
2019-02-28T04:48:45.751Z,11.23
2019-02-28T04:51:49.923Z,10.80
2019-02-28T04:54:55.175Z,14.80
2019-02-28T04:58:00.389Z,13.67
2019-02-28T05:01:05.641Z,12.77
2019-02-28T05:04:10.787Z,12.83
2019-02-28T05:07:15.945Z,11.40
2019-02-28T05:10:22.234Z,11.43
2019-02-28T05:13:28.134Z,8.13
2019-02-28T05:16:34.370Z,11.03
2019-02-28T05:19:39.457Z,10.60
2019-02-28T05:22:44.706Z,11.93
2019-02-28T05:25:52.122Z,12.00
2019-02-28T05:28:56.766Z,10.97
2019-02-28T05:32:01.985Z,15.13
2019-02-28T05:35:07.348Z,12.93
2019-02-28T05:38:12.641Z,15.27
2019-02-28T05:41:17.779Z,14.07
2019-02-28T05:44:22.894Z,18.63
2019-02-28T05:47:29.366Z,14.87
2019-02-28T05:50:34.873Z,12.73
2019-02-28T05:53:41.336Z,13.10
2019-02-28T05:56:47.049Z,15.50
2019-02-28T05:59:52.144Z,15.20
2019-02-28T06:02:58.031Z,11.17
2019-02-28T06:06:04.138Z,13.60
2019-02-28T06:09:10.411Z,14.67
2019-02-28T06:12:16.184Z,14.40
2019-02-28T06:15:21.302Z,19.50
2019-02-28T06:18:32.650Z,24.27
2019-02-28T06:21:33.290Z,17.17
2019-02-28T06:24:38.427Z,17.87
2019-02-28T06:27:49.193Z,13.20
2019-02-28T06:30:50.493Z,16.40
2019-02-28T06:33:55.619Z,13.33
2019-02-28T06:37:03.714Z,13.00
2019-02-28T06:40:09.716Z,14.07
2019-02-28T06:43:18.800Z,18.77
2019-02-28T06:46:23.021Z,15.70
2019-02-28T06:49:28.146Z,14.73
2019-02-28T06:52:33.256Z,20.60
2019-02-28T06:55:47.683Z,22.23
2019-02-28T06:58:52.942Z,22.57
2019-02-28T07:01:58.093Z,24.10
2019-02-28T07:05:03.236Z,23.30
2019-02-28T07:08:08.415Z,18.53
2019-02-28T07:11:13.554Z,20.17
2019-02-28T07:14:18.834Z,16.63
2019-02-28T07:17:23.954Z,15.50
2019-02-28T07:20:29.087Z,13.83
2019-02-28T07:23:34.199Z,16.80
2019-02-28T07:26:39.328Z,18.10
2019-02-28T07:29:45.767Z,15.10
2019-02-28T07:32:50.795Z,23.10
2019-02-28T07:35:55.951Z,16.03
2019-02-28T07:39:04.426Z,14.43
2019-02-28T07:42:09.915Z,18.97
2019-02-28T07:45:16.364Z,12.10
2019-02-28T07:48:26.864Z,14.70
2019-02-28T07:51:28.469Z,17.43
2019-02-28T07:54:33.681Z,16.07
2019-02-28T07:57:38.832Z,16.10
2019-02-28T08:00:44.072Z,13.90
2019-02-28T08:03:49.210Z,12.37
2019-02-28T08:06:54.937Z,14.93
2019-02-28T08:10:00.334Z,12.73
2019-02-28T08:13:05.464Z,10.03
2019-02-28T08:16:10.584Z,15.37
2019-02-28T08:19:15.750Z,17.03
2019-02-28T08:22:24.262Z,24.27
2019-02-28T08:25:27.720Z,12.37
2019-02-28T08:28:36.713Z,11.83
2019-02-28T08:31:39.651Z,9.37
2019-02-28T08:34:46.780Z,9.43
2019-02-28T08:37:55.828Z,11.30
2019-02-28T08:40:58.572Z,9.37
2019-02-28T08:44:03.748Z,10.17
2019-02-28T08:47:08.907Z,10.03
2019-02-28T08:50:20.606Z,11.60
2019-02-28T08:53:23.279Z,11.73
2019-02-28T08:56:28.455Z,10.53
2019-02-28T08:59:33.556Z,9.73
2019-02-28T09:02:39.099Z,11.87
2019-02-28T09:05:44.239Z,17.20
2019-02-28T09:08:49.455Z,12.87
2019-02-28T09:11:58.167Z,15.63
2019-02-28T09:15:01.413Z,12.57
2019-02-28T09:18:08.093Z,13.97
2019-02-28T09:21:15.427Z,10.87
2019-02-28T09:24:22.162Z,14.80
2019-02-28T09:27:27.357Z,13.53
2019-02-28T09:30:37.665Z,16.10
2019-02-28T09:33:42.830Z,18.30
2019-02-28T09:36:47.966Z,12.87
2019-02-28T09:39:54.272Z,21.60
2019-02-28T09:43:00.221Z,19.90
2019-02-28T09:46:06.542Z,22.10
2019-02-28T09:49:12.921Z,20.13
2019-02-28T09:52:18.178Z,28.47
2019-02-28T09:55:23.505Z,25.70
2019-02-28T09:58:29.354Z,30.47
2019-02-28T10:01:35.221Z,32.13
2019-02-28T10:04:40.400Z,30.23
2019-02-28T10:07:45.738Z,35.47
2019-02-28T10:10:52.418Z,33.47
2019-02-28T10:13:57.931Z,32.50
2019-02-28T10:17:03.013Z,31.67
2019-02-28T10:20:11.679Z,30.00
2019-02-28T10:23:18.436Z,28.43
2019-02-28T10:26:23.939Z,32.03
2019-02-28T10:29:29.093Z,31.00
2019-02-28T10:32:34.203Z,34.37
2019-02-28T10:35:39.368Z,32.07
2019-02-28T10:38:44.574Z,31.20
2019-02-28T10:41:49.840Z,29.67
2019-02-28T10:44:56.630Z,28.87
2019-02-28T10:48:03.883Z,29.33
2019-02-28T10:51:14.041Z,33.63
2019-02-28T10:54:15.473Z,30.17
2019-02-28T10:57:20.587Z,29.87
2019-02-28T11:00:29.352Z,28.33
2019-02-28T11:03:35.542Z,29.70
2019-02-28T11:06:41.242Z,28.80
2019-02-28T11:09:46.351Z,27.07
2019-02-28T11:12:54.248Z,26.93
2019-02-28T11:15:58.529Z,25.93
2019-02-28T11:19:05.689Z,25.27
2019-02-28T11:22:10.989Z,27.30
2019-02-28T11:25:16.771Z,27.60
2019-02-28T11:28:21.969Z,27.20
2019-02-28T11:31:27.118Z,31.30
2019-02-28T11:34:32.340Z,24.73
2019-02-28T11:37:37.791Z,32.17
2019-02-28T11:40:44.522Z,31.03
2019-02-28T11:43:49.705Z,28.97
2019-02-28T11:46:54.888Z,24.57
2019-02-28T11:50:00.459Z,26.37
2019-02-28T11:53:07.115Z,31.13
2019-02-28T11:56:13.430Z,25.97
2019-02-28T11:59:18.596Z,29.70
2019-02-28T12:02:23.821Z,28.60
2019-02-28T12:05:28.965Z,28.37
2019-02-28T12:08:34.176Z,27.40
2019-02-28T12:11:39.357Z,29.63
2019-02-28T12:14:44.493Z,28.93
2019-02-28T12:17:49.682Z,25.70
2019-02-28T12:20:54.790Z,28.27
2019-02-28T12:24:00.647Z,28.53
2019-02-28T12:27:06.906Z,27.33
2019-02-28T12:30:18.788Z,36.73
2019-02-28T12:33:24.045Z,31.73
2019-02-28T12:36:29.276Z,29.73
2019-02-28T12:39:36.320Z,29.13
2019-02-28T12:42:41.353Z,27.70
2019-02-28T12:45:47.486Z,30.97
2019-02-28T12:48:52.776Z,29.97
2019-02-28T12:51:57.920Z,27.67
2019-02-28T12:55:04.032Z,30.40
2019-02-28T12:58:11.123Z,33.27
2019-02-28T13:01:16.409Z,32.07
2019-02-28T13:04:21.576Z,29.87
2019-02-28T13:07:26.726Z,31.10
2019-02-28T13:10:31.877Z,34.73
2019-02-28T13:13:37.071Z,31.23
2019-02-28T13:16:42.215Z,31.37
2019-02-28T13:19:47.440Z,30.57
2019-02-28T13:22:55.621Z,29.53
2019-02-28T13:26:00.200Z,28.13
2019-02-28T13:29:05.770Z,27.83
2019-02-28T13:32:10.961Z,28.30
2019-02-28T13:35:18.343Z,29.20
2019-02-28T13:38:23.494Z,25.47
2019-02-28T13:41:28.607Z,33.00
2019-02-28T13:44:36.312Z,32.47
2019-02-28T13:47:42.100Z,25.30
2019-02-28T13:50:48.741Z,26.87
2019-02-28T13:53:53.949Z,34.67
2019-02-28T13:56:59.126Z,26.03
2019-02-28T14:00:08.292Z,30.80
2019-02-28T14:03:12.183Z,26.70
2019-02-28T14:06:19.809Z,25.10
2019-02-28T14:09:24.186Z,27.50
2019-02-28T14:12:29.475Z,30.43
2019-02-28T14:15:40.542Z,25.80
2019-02-28T14:18:46.186Z,23.43
2019-02-28T14:21:51.387Z,25.00
2019-02-28T14:25:05.109Z,24.50
2019-02-28T14:28:07.215Z,22.67
2019-02-28T14:31:12.454Z,24.43
2019-02-28T14:34:17.701Z,24.57
2019-02-28T14:37:22.826Z,24.90
2019-02-28T14:40:28.030Z,26.97
2019-02-28T14:43:34.237Z,24.93
2019-02-28T14:46:39.379Z,22.70
2019-02-28T14:49:44.759Z,27.13
2019-02-28T14:52:50.716Z,27.03
2019-02-28T14:55:55.846Z,26.00
2019-02-28T14:59:01.114Z,28.67
2019-02-28T15:02:06.406Z,26.23
2019-02-28T15:05:12.174Z,28.13
2019-02-28T15:08:17.452Z,27.57
2019-02-28T15:11:22.712Z,26.13
2019-02-28T15:14:27.929Z,25.37
2019-02-28T15:17:33.913Z,29.43
2019-02-28T15:20:39.122Z,25.10
2019-02-28T15:23:44.252Z,26.00
2019-02-28T15:26:49.356Z,30.10
2019-02-28T15:29:55.502Z,25.87
2019-02-28T15:33:01.543Z,26.90
2019-02-28T15:36:06.770Z,27.80
2019-02-28T15:39:11.960Z,25.67
2019-02-28T15:42:17.279Z,26.00
2019-02-28T15:45:22.407Z,28.47
2019-02-28T15:48:27.543Z,29.63
2019-02-28T15:51:32.702Z,26.70
2019-02-28T15:54:37.820Z,26.20
2019-02-28T15:57:46.109Z,27.67
2019-02-28T16:00:53.679Z,23.97
2019-02-28T16:03:58.121Z,23.37
2019-02-28T16:07:03.353Z,23.50
2019-02-28T16:10:09.952Z,27.20
2019-02-28T16:13:15.050Z,29.07
2019-02-28T16:16:21.587Z,27.50
2019-02-28T16:19:27.042Z,25.43
2019-02-28T16:22:32.266Z,26.63
2019-02-28T16:25:37.544Z,28.13
2019-02-28T16:28:43.446Z,27.30
2019-02-28T16:31:48.551Z,26.23
2019-02-28T16:34:53.741Z,31.50
2019-02-28T16:37:58.947Z,30.60
2019-02-28T16:41:04.123Z,28.10
2019-02-28T16:44:09.265Z,28.67
2019-02-28T16:47:14.396Z,28.87
2019-02-28T16:50:19.801Z,26.33
2019-02-28T16:53:25.176Z,28.37
2019-02-28T16:56:30.317Z,27.60
2019-02-28T16:59:35.509Z,21.17
2019-02-28T17:02:40.713Z,27.70
2019-02-28T17:05:45.914Z,21.93
2019-02-28T17:09:19.112Z,22.27
2019-02-28T17:12:46.545Z,22.77
2019-02-28T17:16:08.786Z,23.37
2019-02-28T17:19:14.038Z,24.67
2019-02-28T17:22:19.212Z,31.73
2019-02-28T17:25:24.354Z,21.77
2019-02-28T17:28:49.942Z,22.13
2019-02-28T17:31:56.524Z,22.17
2019-02-28T17:35:01.667Z,16.37
2019-02-28T17:38:06.952Z,21.33
2019-02-28T17:41:12.202Z,13.97
2019-02-28T17:44:41.714Z,15.83
2019-02-28T17:48:12.839Z,18.23
2019-02-28T17:51:27.480Z,23.80
2019-02-28T17:55:27.019Z,25.03
2019-02-28T17:59:28.933Z,23.67
2019-02-28T18:03:14.581Z,29.73
2019-02-28T18:06:57.696Z,21.07
2019-02-28T18:10:59.245Z,25.67
2019-02-28T18:14:20.692Z,27.87
2019-02-28T18:18:17.967Z,26.20
2019-02-28T18:22:19.577Z,30.60
2019-02-28T18:25:48.728Z,37.50
2019-02-28T18:29:11.986Z,27.03
2019-02-28T18:32:17.170Z,23.43
2019-02-28T18:35:22.413Z,25.17
2019-02-28T18:38:27.841Z,23.07
2019-02-28T18:41:33.033Z,20.23
2019-02-28T18:44:41.048Z,23.80
2019-02-28T18:47:45.292Z,23.97
2019-02-28T18:50:50.466Z,21.57
2019-02-28T18:53:55.592Z,18.77
2019-02-28T18:57:00.711Z,19.63
2019-02-28T19:00:08.559Z,12.60
2019-02-28T19:03:13.766Z,16.13
2019-02-28T19:06:19.015Z,14.47
2019-02-28T19:09:25.065Z,14.20
2019-02-28T19:12:30.294Z,15.93
2019-02-28T19:15:35.553Z,12.73
2019-02-28T19:18:40.805Z,14.70
2019-02-28T19:21:46.108Z,9.90
2019-02-28T19:24:51.245Z,9.60
2019-02-28T19:27:56.421Z,10.73
2019-02-28T19:31:01.610Z,8.30
2019-02-28T19:34:06.792Z,9.70
2019-02-28T19:37:12.011Z,9.47
2019-02-28T19:40:17.216Z,11.37
2019-02-28T19:43:22.517Z,11.10
2019-02-28T19:46:27.729Z,12.80
2019-02-28T19:49:32.920Z,12.83
2019-02-28T19:52:38.048Z,14.20
2019-02-28T19:55:43.207Z,10.60
2019-02-28T19:58:48.475Z,11.27
2019-02-28T20:01:53.635Z,10.17
2019-02-28T20:04:58.777Z,10.60
2019-02-28T20:08:04.158Z,13.57
2019-02-28T20:11:09.429Z,13.30
2019-02-28T20:14:14.843Z,13.80
2019-02-28T20:17:20.048Z,12.13
2019-02-28T20:20:25.807Z,11.73
2019-02-28T20:23:30.975Z,11.97
2019-02-28T20:26:36.156Z,14.07
2019-02-28T20:29:42.420Z,14.73
2019-02-28T20:32:47.620Z,13.30
2019-02-28T20:35:53.180Z,16.83
2019-02-28T20:38:58.375Z,14.43
2019-02-28T20:42:03.529Z,14.20
2019-02-28T20:45:09.546Z,14.53
2019-02-28T20:48:14.999Z,12.87
2019-02-28T20:51:20.353Z,18.20
2019-02-28T20:54:25.525Z,13.13
2019-02-28T20:57:30.751Z,15.60
2019-02-28T21:00:35.970Z,16.33
2019-02-28T21:03:41.214Z,14.77
2019-02-28T21:06:46.488Z,16.63
2019-02-28T21:09:51.764Z,22.40
2019-02-28T21:12:56.913Z,16.40
2019-02-28T21:16:02.156Z,22.40
2019-02-28T21:19:07.393Z,13.07
2019-02-28T21:22:12.578Z,17.97
2019-02-28T21:25:17.823Z,17.77
2019-02-28T21:28:26.112Z,17.07
2019-02-28T21:31:31.405Z,18.90
2019-02-28T21:34:36.680Z,18.50
2019-02-28T21:37:41.961Z,15.97
2019-02-28T21:40:47.195Z,18.47
2019-02-28T21:43:52.318Z,15.47
2019-02-28T21:46:57.828Z,16.53
2019-02-28T21:50:03.028Z,20.20
2019-02-28T21:53:08.230Z,20.80
2019-02-28T21:56:13.446Z,22.80
2019-02-28T21:59:18.744Z,18.17
2019-02-28T22:02:23.956Z,19.93
2019-02-28T22:05:29.119Z,20.83
2019-02-28T22:08:34.298Z,17.97
2019-02-28T22:11:39.478Z,18.77
2019-02-28T22:14:44.642Z,17.67
2019-02-28T22:17:49.951Z,20.87
2019-02-28T22:20:55.091Z,20.80
2019-02-28T22:24:00.499Z,18.63
2019-02-28T22:27:05.808Z,18.73
2019-02-28T22:30:39.254Z,18.37
2019-02-28T22:33:54.053Z,19.23
2019-02-28T22:36:59.178Z,19.80
2019-02-28T22:40:04.861Z,19.10
2019-02-28T22:43:09.973Z,19.83
2019-02-28T22:46:16.017Z,14.63
2019-02-28T22:49:21.261Z,22.37
2019-02-28T22:52:26.410Z,17.93
2019-02-28T22:55:31.616Z,17.70
2019-02-28T22:58:36.737Z,16.07
2019-02-28T23:01:42.728Z,17.70
2019-02-28T23:04:48.091Z,20.00
2019-02-28T23:07:53.197Z,14.90
2019-02-28T23:10:58.443Z,15.90
2019-02-28T23:14:03.613Z,19.23
2019-02-28T23:17:08.847Z,21.63
2019-02-28T23:20:14.036Z,15.13
2019-02-28T23:23:19.160Z,13.20
2019-02-28T23:26:26.909Z,17.17
2019-02-28T23:29:35.206Z,14.73
2019-02-28T23:32:50.675Z,18.50
2019-02-28T23:35:55.783Z,18.33
2019-02-28T23:39:02.057Z,18.23
2019-02-28T23:42:08.818Z,11.27
2019-02-28T23:45:14.013Z,16.60
2019-02-28T23:48:19.209Z,16.73
2019-02-28T23:51:24.311Z,15.83
2019-02-28T23:54:29.536Z,14.97
2019-02-28T23:57:34.690Z,15.27
